Wabash, IN (46992)

5:03 PM EST on March 01, 2015 (GMT -0500)
Wabash Co. Central Dispatch | Change Station
CLOSE
Current Station
Personal Weather Station
Location: Wabash, IN
Elevation: 764 ft
Nearby Weather Stations

Elev 764 ft 40.82 °N, 85.80 °W | Updated 5 seconds ago

Overcast
Overcast
27.0 °F
Feels Like 27 °F
N
0.0
Wind Variable Wind from West
Gusts 0.0 mph

Today
High -- | Low -- °F
--% Chance of Precip.
Yesterday
High -- | Low -- °F
Precip. -- in
7:17 AM 6:34 PM
Waxing Gibbous, 87% visible
Pressure 30.32 in
Visibility 10.0 miles
Clouds Scattered Clouds 1400 ft
Overcast 7000 ft
Windchill 27 °F
Dew Point 23 °F
Humidity 86%
Rainfall 0.00 in
Snow Depth Not available.
UV 0 out of 12
Pollen .40 out of 12
Air Quality Not available.
Flu Activity Not available.
METAR KGUS 012158Z 27005KT 10SM SCT014 OVC070 M03/M06 A3027 RMK AO2A SLP266 T10351059

More Conditions Fewer Conditions

Pressure 30.32 in
Visibility 10.0 miles
Clouds Scattered Clouds 1400 ft
Overcast 7000 ft
Windchill 27 °F
Dew Point 23 °F
Humidity 86%
Rainfall 0.00 in
Snow Depth Not available.
UV 0 out of 12
Pollen .40 out of 12
Air Quality Not available.
Flu Activity Not available.
METAR KGUS 012158Z 27005KT 10SM SCT014 OVC070 M03/M06 A3027 RMK AO2A SLP266 T10351059

More Conditions Fewer Conditions

10-Day Weather Forecast

Almanac

Astronomy

Mar. 01, 2015 Rise Set
Actual Time
Civil Twilight
Nautical Twilight
Astronomical Twilight
Moon
Length of Visible Light
Length of Day
Tomorrow will be .
, % of the Moon is Illuminated

Today's Extremes

State Highs State Lows

Community

WunderPhotos

Upload Photos

1,801,585 photos uploaded!

WunderBlogs® & News

Nearby

Air Quality

  Air Quality AQ Index Pollutant
Not available.

Snow Depth

Station Depth Elevation

Earthquake Activity

City Distance Mag. Time & Date
Minimum magnitude displayed is 2.5.

Coastal Water Temperatures

Place Temperature

Nearby Weather Stations